| time (UTC) | temp C | wind direction | speed KPH | gust KPH | rain 1hr cm | rain 24hr cm | rain mn cm | humidity % | barometer mb |
| 20260901111005 | 28 | 336 | 0.0 | 3.2 | 2.01 | 2.03 | 2.03 | 48 | 1018.1 |
| 20260901110505 | 30 | 309 | 1.6 | 6.4 | 1.98 | 2.01 | 2.01 | 46 | 1018.3 |
| 20260901110005 | 30 | 312 | 1.6 | 11.3 | 1.98 | 2.01 | 2.01 | 46 | 1018.5 |
| 20260901105505 | 31 | 315 | 1.6 | 11.3 | 1.98 | 2.01 | 2.01 | 47 | 1018.3 |
| 20260901105005 | 32 | 262 | 0.0 | 1.6 | 1.98 | 2.01 | 2.01 | 45 | 1018.5 |
| 20260901104505 | 32 | 208 | 0.0 | 1.6 | 1.98 | 2.01 | 2.01 | 51 | 1018.3 |
| 20260901104026 | 32 | 135 | 0.0 | 1.6 | 1.37 | 1.42 | 1.45 | 53 | 1018.3 |
| 20260901103505 | 30 | 113 | 1.6 | 6.4 | 1.27 | 1.30 | 1.30 | 56 | 1018.5 |
| 20260901103005 | 28 | 72 | 1.6 | 6.4 | 0.36 | 0.38 | 0.38 | 57 | 1018.5 |
| 20260901102505 | 27 | 80 | 1.6 | 4.8 | 0.00 | 0.03 | 0.03 | 60 | 1018.5 |
| 20260901102005 | 27 | 76 | 3.2 | 8.0 | 0.00 | 0.03 | 0.03 | 63 | 1018.5 |
| 20260901101505 | 26 | 55 | 3.2 | 8.0 | 0.00 | 0.03 | 0.03 | 63 | 1018.5 |
| 20260901101005 | 25 | 304 | 0.0 | 3.2 | 0.00 | 0.03 | 0.03 | 62 | 1018.5 |
| 20260901100526 | 26 | 315 | 0.0 | 1.6 | 0.00 | 0.03 | 0.03 | 62 | 1018.6 |
| 20260901100005 | 26 | 315 | 0.0 | 1.6 | 0.00 | 0.03 | 0.03 | 62 | 1018.5 |
| 20260901095505 | 26 | 0 | 0.0 | 0.0 | 0.00 | 0.03 | 0.03 | 62 | 1018.5 |
| 20260901095005 | 26 | 0 | 0.0 | 0.0 | 0.00 | 0.03 | 0.03 | 62 | 1018.6 |
| 20260901094505 | 25 | 0 | 0.0 | 0.0 | 0.00 | 0.03 | 0.03 | 62 | 1018.7 |
| 20260901094005 | 25 | 288 | 0.0 | 6.4 | 0.00 | 0.03 | 0.03 | 62 | 1018.6 |
| 20260901093505 | 25 | 262 | 1.6 | 6.4 | 0.00 | 0.03 | 0.03 | 62 | 1018.8 |
| 20260901093005 | 25 | 289 | 3.2 | 11.3 | 0.03 | 0.03 | 0.03 | 62 | 1018.6 |
| 20260901092526 | 25 | 304 | 4.8 | 11.3 | 0.03 | 0.03 | 0.03 | 62 | 1018.6 |
| 20260901092005 | 25 | 313 | 4.8 | 8.0 | 0.03 | 0.03 | 0.03 | 62 | 1018.6 |
| 20260901091505 | 25 | 301 | 4.8 | 8.0 | 0.03 | 0.03 | 0.03 | 61 | 1018.7 |
| 20260901091005 | 25 | 254 | 6.4 | 8.0 | 0.03 | 0.03 | 0.03 | 60 | 1018.5 |
| 20260901090505 | 25 | 246 | 4.8 | 8.0 | 0.03 | 0.03 | 0.03 | 58 | 1018.6 |
| 20260901090005 | 25 | 254 | 0.0 | 1.6 | 0.03 | 0.03 | 0.03 | 57 | 1018.5 |
| 20260901085505 | 24 | 206 | 1.6 | 4.8 | 0.03 | 0.03 | 0.03 | 57 | 1018.6 |
| 20260901085005 | 24 | 191 | 1.6 | 4.8 | 0.03 | 0.03 | 0.03 | 56 | 1018.3 |
| 20260901084505 | 23 | 67 | 0.0 | 1.6 | 0.03 | 0.03 | 0.03 | 56 | 1018.4 |
| 20260901084005 | 23 | 16 | 1.6 | 6.4 | 0.03 | 0.03 | 0.03 | 56 | 1018.5 |
| 20260901083526 | 23 | 21 | 3.2 | 9.7 | 0.03 | 0.03 | 0.03 | 55 | 1018.3 |
| 20260901083005 | 23 | 39 | 8.0 | 12.9 | 0.00 | 0.00 | 0.00 | 55 | 1018.5 |
| 20260901082526 | 24 | 54 | 6.4 | 12.9 | 0.00 | 0.00 | 0.00 | 53 | 1018.3 |
| 20260901082005 | 24 | 57 | 1.6 | 8.0 | 0.00 | 0.00 | 0.00 | 53 | 1018.1 |
| 20260901081505 | 24 | 0 | 0.0 | 0.0 | 0.00 | 0.00 | 0.00 | 53 | 1018.1 |
| 20260901081005 | 24 | 0 | 0.0 | 0.0 | 0.00 | 0.00 | 0.00 | 53 | 1018.3 |
| 20260901080505 | 23 | 0 | 0.0 | 0.0 | 0.00 | 0.00 | 0.00 | 52 | 1018.3 |
| 20260901080026 | 23 | 0 | 0.0 | 0.0 | 0.00 | 0.00 | 0.00 | 52 | 1017.9 |
| 20260901075505 | 22 | 22 | 0.0 | 4.8 | 0.00 | 0.00 | 0.00 | 53 | 1018.1 |
| 20260901075005 | 22 | 22 | 0.0 | 4.8 | 0.00 | 0.00 | 0.00 | 53 | 1018.1 |
| 20260901074505 | 22 | 22 | 0.0 | 1.6 | 0.00 | 0.00 | 0.00 | 54 | 1017.7 |
| 20260901074005 | 22 | 22 | 0.0 | 1.6 | 0.00 | 0.00 | 0.00 | 54 | 1017.9 |
| 20260901073505 | 22 | 22 | 1.6 | 4.8 | 0.00 | 0.00 | 0.00 | 53 | 1017.7 |
| 20260901073005 | 22 | 22 | 1.6 | 6.4 | 0.00 | 0.00 | 0.00 | 53 | 1017.8 |
| 20260901072505 | 22 | 29 | 1.6 | 6.4 | 0.00 | 0.00 | 0.00 | 52 | 1017.7 |
| 20260901072005 | 22 | 28 | 3.2 | 6.4 | 0.00 | 0.00 | 0.00 | 52 | 1017.7 |
| 20260901071505 | 22 | 60 | 4.8 | 8.0 | 0.00 | 0.00 | 0.00 | 51 | 1017.7 |
| 20260901071005 | 22 | 72 | 6.4 | 8.0 | 0.00 | 0.00 | 0.00 | 50 | 1017.8 |
| 20260901070505 | 23 | 52 | 8.0 | 9.7 | 0.00 | 0.00 | 0.00 | 49 | 1017.7 |
| 20260901070005 | 23 | 28 | 3.2 | 9.7 | 0.00 | 0.00 | 0.00 | 49 | 1017.7 |
| 20260901065505 | 23 | 65 | 3.2 | 11.3 | 0.00 | 0.00 | 0.00 | 50 | 1017.7 |
| 20260901065005 | 23 | 71 | 6.4 | 11.3 | 0.00 | 0.00 | 0.00 | 49 | 1017.7 |
| 20260901064505 | 23 | 71 | 6.4 | 8.0 | 0.00 | 0.00 | 0.00 | 47 | 1017.7 |
| 20260901064005 | 23 | 56 | 3.2 | 8.0 | 0.00 | 0.00 | 0.00 | 45 | 1017.4 |
| 20260901063526 | 23 | 22 | 1.6 | 6.4 | 0.00 | 0.00 | 0.00 | 44 | 1017.4 |
| 20260901063005 | 23 | 39 | 3.2 | 12.9 | 0.00 | 0.00 | 0.00 | 43 | 1017.6 |
| 20260901062526 | 22 | 47 | 6.4 | 12.9 | 0.00 | 0.00 | 0.00 | 42 | 1017.5 |
| 20260901062026 | 22 | 49 | 8.0 | 12.9 | 0.00 | 0.00 | 0.00 | 42 | 1017.3 |
| 20260901061505 | 22 | 39 | 8.0 | 11.3 | 0.00 | 0.00 | 0.00 | 42 | 1017.2 |
| 20260901061005 | 22 | 14 | 8.0 | 11.3 | 0.00 | 0.00 | 0.00 | 42 | 1017.0 |
| 20260901060504 | 22 | 5 | 8.0 | 12.9 | 0.00 | 0.00 | 0.00 | 41 | 1016.9 |
| 20260901060005 | 22 | 16 | 9.7 | 12.9 | 0.00 | 0.00 | 0.00 | 41 | 1017.0 |
| 20260901055505 | 22 | 21 | 9.7 | 12.9 | 0.00 | 0.00 | 0.00 | 41 | 1016.8 |
| 20260901055005 | 22 | 34 | 8.0 | 12.9 | 0.00 | 0.00 | 0.00 | 41 | 1016.8 |
| 20260901054505 | 22 | 55 | 9.7 | 12.9 | 0.00 | 0.00 | 0.00 | 44 | 1016.7 |
| 20260901054005 | 22 | 53 | 11.3 | 14.5 | 0.00 | 0.00 | 0.00 | 44 | 1016.8 |
| 20260901053505 | 22 | 35 | 11.3 | 14.5 | 0.00 | 0.00 | 0.00 | 44 | 1016.6 |
| 20260901053005 | 22 | 30 | 8.0 | 12.9 | 0.00 | 0.00 | 0.00 | 44 | 1016.5 |
| 20260901052505 | 22 | 52 | 8.0 | 12.9 | 0.00 | 0.00 | 0.00 | 44 | 1016.5 |
| 20260901052005 | 22 | 42 | 11.3 | 12.9 | 0.00 | 0.00 | 0.00 | 44 | 1016.6 |
| 20260901051505 | 21 | 26 | 9.7 | 12.9 | 0.00 | 0.00 | 0.00 | 44 | 1016.6 |
| 20260901051026 | 21 | 35 | 9.7 | 12.9 | 0.00 | 0.00 | 0.00 | 45 | 1016.5 |
| 20260901050526 | 21 | 49 | 11.3 | 12.9 | 0.00 | 0.00 | 0.00 | 45 | 1016.4 |
| 20260901050005 | 21 | 42 | 9.7 | 12.9 | 0.00 | 0.00 | 0.00 | 45 | 1016.3 |
| 20260901045526 | 21 | 28 | 9.7 | 12.9 | 0.00 | 0.00 | 0.00 | 45 | 1016.2 |
| 20260901045005 | 21 | 24 | 11.3 | 17.7 | 0.00 | 0.00 | 0.00 | 45 | 1016.3 |
| 20260901044506 | 21 | 25 | 11.3 | 17.7 | 0.00 | 0.00 | 0.00 | 45 | 1016.2 |
| 20260901044005 | 21 | 47 | 9.7 | 12.9 | 0.00 | 0.00 | 0.00 | 45 | 1016.1 |
| 20260901043526 | 21 | 60 | 8.0 | 9.7 | 0.00 | 0.00 | 0.00 | 45 | 1015.9 |
| 20260901043026 | 21 | 63 | 6.4 | 9.7 | 0.00 | 0.00 | 0.00 | 45 | 1015.9 |
| 20260901042505 | 21 | 52 | 4.8 | 8.0 | 0.00 | 0.00 | 0.00 | 45 | 1016.0 |
| 20260901042004 | 21 | 23 | 8.0 | 12.9 | 0.00 | 0.00 | 0.00 | 45 | 1015.9 |
| 20260901041526 | 21 | 19 | 9.7 | 12.9 | 0.00 | 0.00 | 0.00 | 45 | 1015.8 |
| 20260901041005 | 21 | 51 | 9.7 | 9.7 | 0.00 | 0.00 | 0.00 | 45 | 1015.7 |
| 20260901040505 | 21 | 61 | 9.7 | 16.1 | 0.00 | 0.00 | 0.00 | 44 | 1015.7 |
| 20260901040004 | 21 | 47 | 11.3 | 17.7 | 0.00 | 0.00 | 0.00 | 44 | 1015.6 |
| 20260901035505 | 21 | 45 | 14.5 | 22.5 | 0.00 | 0.00 | 0.00 | 44 | 1015.3 |
| 20260901035005 | 21 | 45 | 16.1 | 22.5 | 0.00 | 0.00 | 0.00 | 45 | 1015.2 |
| 20260901034505 | 21 | 37 | 14.5 | 17.7 | 0.00 | 0.00 | 0.00 | 45 | 1015.1 |
| 20260901034005 | 21 | 35 | 14.5 | 17.7 | 0.00 | 0.00 | 0.00 | 45 | 1015.1 |
| 20260901033504 | 21 | 33 | 12.9 | 17.7 | 0.00 | 0.00 | 0.00 | 45 | 1015.1 |
| 20260901033005 | 21 | 24 | 12.9 | 20.9 | 0.00 | 0.00 | 0.00 | 45 | 1015.0 |
| 20260901032526 | 22 | 30 | 12.9 | 20.9 | 0.00 | 0.00 | 0.00 | 45 | 1014.9 |
| 20260901032004 | 22 | 24 | 16.1 | 22.5 | 0.00 | 0.00 | 0.00 | 45 | 1014.9 |
| 20260901031505 | 22 | 10 | 20.9 | 24.1 | 0.00 | 0.00 | 0.00 | 45 | 1014.9 |
| 20260901031004 | 22 | 12 | 17.7 | 24.1 | 0.00 | 0.00 | 0.00 | 45 | 1015.0 |
| 20260901030504 | 22 | 17 | 14.5 | 20.9 | 0.00 | 0.00 | 0.00 | 45 | 1015.0 |
| 20260901030005 | 22 | 20 | 14.5 | 24.1 | 0.00 | 0.00 | 0.00 | 45 | 1015.0 |
| 20260901025505 | 22 | 23 | 14.5 | 24.1 | 0.00 | 0.00 | 0.00 | 45 | 1014.8 |
| 20260901025004 | 22 | 20 | 16.1 | 24.1 | 0.00 | 0.00 | 0.00 | 45 | 1015.0 |
| 20260901024504 | 22 | 15 | 16.1 | 17.7 | 0.00 | 0.00 | 0.00 | 42 | 1015.0 |
| 20260901024026 | 22 | 28 | 12.9 | 17.7 | 0.00 | 0.00 | 0.00 | 42 | 1015.0 |
| 20260901023505 | 22 | 42 | 12.9 | 17.7 | 0.00 | 0.00 | 0.00 | 42 | 1015.0 |
| 20260901023005 | 22 | 35 | 12.9 | 17.7 | 0.00 | 0.00 | 0.00 | 42 | 1015.1 |
| 20260901022505 | 22 | 29 | 11.3 | 14.5 | 0.00 | 0.00 | 0.00 | 43 | 1015.1 |
| 20260901022004 | 22 | 20 | 9.7 | 12.9 | 0.00 | 0.00 | 0.00 | 42 | 1015.0 |
| 20260901021505 | 22 | 13 | 11.3 | 16.1 | 0.00 | 0.00 | 0.00 | 42 | 1015.1 |
| 20260901021004 | 22 | 18 | 12.9 | 16.1 | 0.00 | 0.00 | 0.00 | 42 | 1014.9 |
| 20260901020526 | 22 | 22 | 12.9 | 16.1 | 0.00 | 0.00 | 0.00 | 42 | 1015.1 |
| 20260901020026 | 22 | 16 | 11.3 | 16.1 | 0.00 | 0.00 | 0.00 | 42 | 1014.9 |
| 20260901015505 | 23 | 9 | 9.7 | 12.9 | 0.00 | 0.00 | 0.00 | 42 | 1015.0 |
| 20260901015005 | 23 | 17 | 9.7 | 16.1 | 0.00 | 0.00 | 0.00 | 42 | 1015.0 |
| 20260901014505 | 23 | 17 | 8.0 | 16.1 | 0.00 | 0.00 | 0.00 | 42 | 1015.0 |
| 20260901014004 | 23 | 22 | 8.0 | 12.9 | 0.00 | 0.00 | 0.00 | 43 | 1015.0 |
| 20260901013505 | 23 | 19 | 9.7 | 12.9 | 0.00 | 0.00 | 0.00 | 43 | 1014.9 |
| 20260901013005 | 23 | 2 | 8.0 | 11.3 | 0.00 | 0.00 | 0.00 | 43 | 1014.8 |
| 20260901012526 | 23 | 5 | 8.0 | 11.3 | 0.00 | 0.00 | 0.00 | 44 | 1015.0 |
| 20260901012005 | 22 | 18 | 9.7 | 12.9 | 0.00 | 0.00 | 0.00 | 45 | 1014.9 |
| 20260901011504 | 22 | 15 | 9.7 | 14.5 | 0.00 | 0.00 | 0.00 | 45 | 1015.0 |
| 20260901011005 | 22 | 11 | 9.7 | 14.5 | 0.00 | 0.00 | 0.00 | 46 | 1015.0 |
| 20260901010505 | 22 | 11 | 9.7 | 12.9 | 0.00 | 0.00 | 0.00 | 47 | 1014.9 |
| 20260901010005 | 22 | 355 | 8.0 | 12.9 | 0.00 | 0.00 | 0.00 | 49 | 1014.9 |
| 20260901005526 | 22 | 355 | 6.4 | 12.9 | 0.00 | 0.00 | 0.00 | 50 | 1014.8 |
| 20260901005005 | 22 | 5 | 4.8 | 11.3 | 0.00 | 0.00 | 0.00 | 51 | 1014.9 |
| 20260901004526 | 22 | 10 | 4.8 | 12.9 | 0.00 | 0.00 | 0.00 | 51 | 1014.8 |
| 20260901004004 | 22 | 6 | 8.0 | 12.9 | 0.00 | 0.00 | 0.00 | 52 | 1014.8 |
| 20260901003505 | 22 | 4 | 6.4 | 12.9 | 0.00 | 0.00 | 0.00 | 52 | 1014.8 |
| 20260901003005 | 22 | 17 | 4.8 | 6.4 | 0.00 | 0.00 | 0.00 | 53 | 1014.8 |
| 20260901002526 | 22 | 11 | 6.4 | 11.3 | 0.00 | 0.00 | 0.00 | 53 | 1015.0 |
| 20260901002005 | 22 | 15 | 8.0 | 11.3 | 0.00 | 0.00 | 0.00 | 54 | 1014.9 |
| 20260901001526 | 22 | 28 | 6.4 | 11.3 | 0.00 | 0.00 | 0.00 | 55 | 1014.9 |
| 20260901001004 | 22 | 24 | 6.4 | 6.4 | 0.00 | 0.00 | 0.00 | 56 | 1014.9 |
| 20260901000526 | 22 | 21 | 8.0 | 11.3 | 0.00 | 0.00 | 0.00 | 58 | 1014.9 |
| 20260901000005 | 22 | 20 | 6.4 | 11.3 | 0.00 | 0.00 | 0.00 | 58 | 1014.9 |
| 20260831235526 | 22 | 14 | 4.8 | 9.7 | 0.00 | 0.00 | 0.00 | 59 | 1015.0 |
| 20260831235005 | 22 | 7 | 3.2 | 6.4 | 0.00 | 0.00 | 0.00 | 60 | 1014.9 |
| 20260831234504 | 22 | 13 | 0.0 | 1.6 | 0.00 | 0.00 | 0.00 | 60 | 1014.8 |
| 20260831234005 | 22 | 353 | 1.6 | 3.2 | 0.00 | 0.00 | 0.00 | 60 | 1015.0 |
| 20260831233505 | 22 | 8 | 1.6 | 6.4 | 0.00 | 0.00 | 0.00 | 60 | 1014.9 |
| 20260831233005 | 22 | 21 | 3.2 | 6.4 | 0.00 | 0.00 | 0.00 | 61 | 1014.7 |
| 20260831232526 | 22 | 20 | 3.2 | 4.8 | 0.00 | 0.00 | 0.00 | 61 | 1014.9 |
| 20260831232005 | 22 | 15 | 3.2 | 6.4 | 0.00 | 0.00 | 0.00 | 61 | 1014.8 |
| 20260831231505 | 22 | 15 | 4.8 | 6.4 | 0.00 | 0.00 | 0.00 | 62 | 1014.8 |
| 20260831231004 | 22 | 18 | 3.2 | 6.4 | 0.00 | 0.00 | 0.00 | 63 | 1014.5 |
| 20260831230504 | 22 | 17 | 1.6 | 6.4 | 0.00 | 0.00 | 0.00 | 63 | 1014.7 |
| 20260831230004 | 22 | 12 | 1.6 | 3.2 | 0.00 | 0.00 | 0.00 | 64 | 1014.8 |
| 20260831225525 | 22 | 7 | 1.6 | 3.2 | 0.00 | 0.00 | 0.00 | 64 | 1014.6 |
| 20260831225004 | 22 | 7 | 1.6 | 3.2 | 0.00 | 0.00 | 0.00 | 64 | 1014.6 |
| 20260831224504 | 22 | 13 | 1.6 | 3.2 | 0.00 | 0.00 | 0.00 | 64 | 1014.6 |
| 20260831224025 | 22 | 5 | 0.0 | 3.2 | 0.00 | 0.00 | 0.00 | 64 | 1014.5 |
| 20260831223504 | 23 | 6 | 1.6 | 3.2 | 0.00 | 0.00 | 0.00 | 63 | 1014.5 |
| 20260831223004 | 23 | 10 | 1.6 | 3.2 | 0.00 | 0.00 | 0.00 | 64 | 1014.6 |
| 20260831222504 | 23 | 12 | 1.6 | 3.2 | 0.00 | 0.00 | 0.00 | 64 | 1014.6 |
| 20260831222004 | 23 | 13 | 1.6 | 3.2 | 0.00 | 0.00 | 0.00 | 64 | 1014.6 |
| 20260831221504 | 23 | 25 | 0.0 | 1.6 | 0.00 | 0.00 | 0.00 | 65 | 1014.6 |
| 20260831221004 | 23 | 0 | 0.0 | 0.0 | 0.00 | 0.00 | 0.00 | 65 | 1014.5 |
| 20260831220525 | 23 | 9 | 0.0 | 1.6 | 0.00 | 0.00 | 0.00 | 65 | 1014.6 |
| 20260831220004 | 23 | 9 | 0.0 | 1.6 | 0.00 | 0.00 | 0.00 | 65 | 1014.5 |
| 20260831215504 | 23 | 0 | 0.0 | 0.0 | 0.00 | 0.00 | 0.00 | 64 | 1014.5 |
| 20260831215004 | 23 | 360 | 0.0 | 1.6 | 0.00 | 0.00 | 0.00 | 64 | 1014.4 |
| 20260831214525 | 23 | 13 | 0.0 | 1.6 | 0.00 | 0.00 | 0.00 | 64 | 1014.4 |
| 20260831214004 | 23 | 22 | 0.0 | 1.6 | 0.00 | 0.00 | 0.00 | 64 | 1014.5 |
| 20260831213504 | 23 | 0 | 0.0 | 0.0 | 0.00 | 0.00 | 0.00 | 65 | 1014.4 |
| 20260831213004 | 23 | 0 | 0.0 | 0.0 | 0.00 | 0.00 | 0.00 | 65 | 1014.4 |
| 20260831212504 | 23 | 0 | 0.0 | 0.0 | 0.00 | 0.00 | 0.00 | 65 | 1014.3 |
| 20260831212004 | 23 | 0 | 0.0 | 0.0 | 0.00 | 0.00 | 0.00 | 65 | 1014.4 |
| 20260831211504 | 23 | 0 | 0.0 | 0.0 | 0.00 | 0.00 | 0.00 | 65 | 1014.3 |
| 20260831211004 | 23 | 0 | 0.0 | 0.0 | 0.00 | 0.00 | 0.00 | 64 | 1014.3 |
| 20260831210504 | 23 | 0 | 0.0 | 0.0 | 0.00 | 0.00 | 0.00 | 64 | 1014.4 |
| 20260831210004 | 23 | 0 | 0.0 | 0.0 | 0.00 | 0.00 | 0.00 | 63 | 1014.2 |
| 20260831205504 | 23 | 0 | 0.0 | 0.0 | 0.00 | 0.00 | 0.00 | 63 | 1014.3 |
| 20260831205004 | 23 | 0 | 0.0 | 0.0 | 0.00 | 0.00 | 0.00 | 62 | 1014.2 |
| 20260831204504 | 24 | 0 | 0.0 | 0.0 | 0.00 | 0.00 | 0.00 | 62 | 1014.3 |
| 20260831204025 | 24 | 0 | 0.0 | 0.0 | 0.00 | 0.00 | 0.00 | 62 | 1014.3 |
| 20260831203504 | 24 | 0 | 0.0 | 0.0 | 0.00 | 0.00 | 0.00 | 61 | 1014.3 |
| 20260831203004 | 24 | 0 | 0.0 | 0.0 | 0.00 | 0.00 | 0.00 | 61 | 1014.2 |
| 20260831202504 | 24 | 0 | 0.0 | 0.0 | 0.00 | 0.00 | 0.00 | 60 | 1014.0 |
| 20260831202025 | 24 | 0 | 0.0 | 0.0 | 0.00 | 0.00 | 0.00 | 60 | 1014.0 |
| 20260831201504 | 24 | 22 | 0.0 | 1.6 | 0.00 | 0.00 | 0.00 | 60 | 1014.1 |
| 20260831201025 | 25 | 22 | 0.0 | 1.6 | 0.00 | 0.00 | 0.00 | 60 | 1013.9 |
| 20260831200504 | 25 | 19 | 1.6 | 4.8 | 0.00 | 0.00 | 0.00 | 60 | 1013.9 |
| 20260831200025 | 25 | 19 | 1.6 | 4.8 | 0.00 | 0.00 | 0.00 | 60 | 1013.8 |
| 20260831195525 | 25 | 22 | 0.0 | 4.8 | 0.00 | 0.00 | 0.00 | 59 | 1013.8 |
| 20260831195004 | 25 | 0 | 0.0 | 0.0 | 0.00 | 0.00 | 0.00 | 58 | 1013.8 |
| 20260831194504 | 25 | 0 | 0.0 | 0.0 | 0.00 | 0.00 | 0.00 | 58 | 1013.8 |
| 20260831194004 | 25 | 0 | 0.0 | 0.0 | 0.00 | 0.00 | 0.00 | 57 | 1013.7 |
| 20260831193504 | 25 | 0 | 0.0 | 0.0 | 0.00 | 0.00 | 0.00 | 56 | 1013.7 |
| 20260831193004 | 25 | 0 | 0.0 | 0.0 | 0.00 | 0.00 | 0.00 | 56 | 1013.7 |
| 20260831192504 | 25 | 0 | 0.0 | 0.0 | 0.00 | 0.00 | 0.00 | 56 | 1013.6 |
| 20260831192004 | 25 | 0 | 0.0 | 0.0 | 0.00 | 0.00 | 0.00 | 56 | 1013.6 |
| 20260831191504 | 25 | 0 | 0.0 | 0.0 | 0.00 | 0.00 | 0.00 | 55 | 1013.7 |
| 20260831191004 | 25 | 0 | 0.0 | 0.0 | 0.00 | 0.00 | 0.00 | 55 | 1013.9 |
| 20260831190525 | 25 | 0 | 0.0 | 0.0 | 0.00 | 0.00 | 0.00 | 55 | 1013.6 |
| 20260831190004 | 25 | 0 | 0.0 | 0.0 | 0.00 | 0.00 | 0.00 | 55 | 1013.4 |
| 20260831185504 | 25 | 0 | 0.0 | 0.0 | 0.00 | 0.00 | 0.00 | 55 | 1013.5 |
| 20260831185004 | 25 | 0 | 0.0 | 0.0 | 0.00 | 0.00 | 0.00 | 54 | 1013.5 |
| 20260831184504 | 25 | 0 | 0.0 | 0.0 | 0.00 | 0.00 | 0.00 | 54 | 1013.4 |
| 20260831184004 | 25 | 0 | 0.0 | 0.0 | 0.00 | 0.00 | 0.00 | 54 | 1013.3 |
| 20260831183504 | 26 | 0 | 0.0 | 0.0 | 0.00 | 0.00 | 0.00 | 53 | 1013.1 |
| 20260831183004 | 26 | 0 | 0.0 | 0.0 | 0.00 | 0.00 | 0.00 | 53 | 1013.2 |
| 20260831182504 | 26 | 0 | 0.0 | 0.0 | 0.00 | 0.00 | 0.00 | 52 | 1013.2 |
| 20260831182004 | 26 | 0 | 0.0 | 0.0 | 0.00 | 0.00 | 0.00 | 52 | 1013.0 |
| 20260831181504 | 26 | 0 | 0.0 | 0.0 | 0.00 | 0.00 | 0.00 | 52 | 1013.0 |
| 20260831181004 | 26 | 0 | 0.0 | 0.0 | 0.00 | 0.00 | 0.00 | 52 | 1013.0 |
| 20260831180504 | 27 | 0 | 0.0 | 0.0 | 0.00 | 0.00 | 0.00 | 52 | 1013.0 |
| 20260831180025 | 27 | 0 | 0.0 | 0.0 | 0.00 | 0.00 | 0.00 | 52 | 1012.8 |
| 20260831175504 | 27 | 0 | 0.0 | 0.0 | 0.00 | 0.00 | 0.00 | 51 | 1012.9 |
| 20260831175004 | 27 | 0 | 0.0 | 0.0 | 0.00 | 0.00 | 0.00 | 51 | 1013.1 |
| 20260831174504 | 27 | 360 | 0.0 | 1.6 | 0.00 | 0.00 | 0.00 | 46 | 1012.9 |
| 20260831174004 | 27 | 360 | 0.0 | 1.6 | 0.00 | 0.00 | 0.00 | 46 | 1013.1 |
| 20260831173504 | 28 | 0 | 0.0 | 0.0 | 0.00 | 0.00 | 0.00 | 46 | 1013.0 |
| 20260831173004 | 28 | 0 | 0.0 | 0.0 | 0.00 | 0.00 | 0.00 | 45 | 1012.9 |
| 20260831172525 | 28 | 0 | 0.0 | 0.0 | 0.00 | 0.00 | 0.00 | 45 | 1013.1 |
| 20260831172004 | 29 | 0 | 0.0 | 0.0 | 0.00 | 0.00 | 0.00 | 44 | 1013.0 |
| 20260831171525 | 30 | 0 | 0.0 | 0.0 | 0.00 | 0.00 | 0.00 | 44 | 1013.0 |
| 20260831171004 | 30 | 0 | 0.0 | 0.0 | 0.00 | 0.00 | 0.00 | 44 | 1013.0 |
| 20260831170504 | 30 | 315 | 0.0 | 1.6 | 0.00 | 0.00 | 0.00 | 43 | 1012.9 |
| 20260831170004 | 30 | 315 | 0.0 | 1.6 | 0.00 | 0.00 | 0.00 | 43 | 1012.8 |
| 20260831165504 | 30 | 315 | 0.0 | 1.6 | 0.00 | 0.00 | 0.00 | 43 | 1012.8 |
| 20260831165004 | 30 | 315 | 0.0 | 1.6 | 0.00 | 0.00 | 0.00 | 43 | 1013.1 |
| 20260831164504 | 30 | 304 | 0.0 | 3.2 | 0.00 | 0.00 | 0.00 | 42 | 1013.0 |
| 20260831164004 | 30 | 287 | 0.0 | 3.2 | 0.00 | 0.00 | 0.00 | 42 | 1013.1 |
| 20260831163504 | 30 | 275 | 0.0 | 1.6 | 0.00 | 0.00 | 0.00 | 43 | 1012.9 |
| 20260831163004 | 30 | 300 | 0.0 | 1.6 | 0.00 | 0.00 | 0.00 | 43 | 1013.2 |
| 20260831162504 | 30 | 247 | 0.0 | 3.2 | 0.00 | 0.00 | 0.00 | 43 | 1013.0 |
| 20260831162025 | 30 | 247 | 1.6 | 3.2 | 0.00 | 0.00 | 0.00 | 43 | 1013.1 |
| 20260831161504 | 30 | 247 | 0.0 | 1.6 | 0.00 | 0.00 | 0.00 | 43 | 1013.1 |
| 20260831161004 | 30 | 247 | 0.0 | 1.6 | 0.00 | 0.00 | 0.00 | 43 | 1013.1 |
| 20260831160504 | 30 | 289 | 0.0 | 3.2 | 0.00 | 0.00 | 0.00 | 43 | 1013.1 |
| 20260831160004 | 30 | 308 | 1.6 | 3.2 | 0.00 | 0.00 | 0.00 | 43 | 1013.1 |
| 20260831155504 | 30 | 319 | 1.6 | 6.4 | 0.00 | 0.00 | 0.00 | 43 | 1013.0 |
| 20260831155004 | 30 | 317 | 1.6 | 6.4 | 0.00 | 0.00 | 0.00 | 43 | 1013.1 |
| 20260831154504 | 30 | 247 | 0.0 | 1.6 | 0.00 | 0.00 | 0.00 | 43 | 1013.2 |
| 20260831154004 | 30 | 307 | 1.6 | 6.4 | 0.00 | 0.00 | 0.00 | 43 | 1013.3 |
| 20260831153504 | 30 | 297 | 4.8 | 8.0 | 0.00 | 0.00 | 0.00 | 43 | 1013.4 |
| 20260831153004 | 30 | 272 | 6.4 | 12.9 | 0.00 | 0.00 | 0.00 | 42 | 1013.3 |
| 20260831152504 | 30 | 274 | 4.8 | 12.9 | 0.00 | 0.00 | 0.00 | 43 | 1013.2 |
| 20260831152003 | 30 | 280 | 3.2 | 6.4 | 0.00 | 0.00 | 0.00 | 43 | 1013.2 |
| 20260831151504 | 30 | 280 | 3.2 | 9.7 | 0.00 | 0.00 | 0.00 | 43 | 1013.4 |
| 20260831151025 | 30 | 315 | 1.6 | 9.7 | 0.00 | 0.00 | 0.00 | 43 | 1013.5 |
| 20260831150504 | 31 | 286 | 1.6 | 6.4 | 0.00 | 0.00 | 0.00 | 42 | 1013.4 |
| 20260831150004 | 31 | 278 | 1.6 | 6.4 | 0.00 | 0.00 | 0.00 | 42 | 1013.4 |
| 20260831145504 | 31 | 299 | 0.0 | 3.2 | 0.00 | 0.00 | 0.00 | 42 | 1013.4 |
| 20260831145004 | 31 | 254 | 1.6 | 9.7 | 0.00 | 0.00 | 0.00 | 43 | 1013.5 |
| 20260831144504 | 31 | 254 | 1.6 | 9.7 | 0.00 | 0.00 | 0.00 | 42 | 1013.5 |
| 20260831144025 | 31 | 283 | 1.6 | 9.7 | 0.00 | 0.00 | 0.00 | 42 | 1013.4 |
| 20260831143504 | 31 | 275 | 1.6 | 4.8 | 0.00 | 0.00 | 0.00 | 42 | 1013.4 |
| 20260831143004 | 31 | 255 | 1.6 | 4.8 | 0.00 | 0.00 | 0.00 | 42 | 1013.5 |
| 20260831142504 | 31 | 279 | 0.0 | 9.7 | 0.00 | 0.00 | 0.00 | 42 | 1013.3 |
| 20260831142004 | 31 | 258 | 4.8 | 9.7 | 0.00 | 0.00 | 0.00 | 42 | 1013.3 |
| 20260831141525 | 31 | 254 | 6.4 | 9.7 | 0.00 | 0.00 | 0.00 | 42 | 1013.6 |
| 20260831141004 | 31 | 267 | 1.6 | 8.0 | 0.00 | 0.00 | 0.00 | 42 | 1013.3 |
| 20260831140504 | 30 | 346 | 1.6 | 6.4 | 0.00 | 0.00 | 0.00 | 42 | 1013.5 |
| 20260831140004 | 30 | 263 | 3.2 | 6.4 | 0.00 | 0.00 | 0.00 | 42 | 1013.5 |
| 20260831135504 | 30 | 251 | 1.6 | 6.4 | 0.00 | 0.00 | 0.00 | 42 | 1013.5 |
| 20260831135004 | 30 | 224 | 0.0 | 1.6 | 0.00 | 0.00 | 0.00 | 42 | 1013.5 |
| 20260831134503 | 30 | 212 | 4.8 | 12.9 | 0.00 | 0.00 | 0.00 | 43 | 1013.5 |
| 20260831134004 | 30 | 226 | 8.0 | 14.5 | 0.00 | 0.00 | 0.00 | 42 | 1013.5 |
| 20260831133503 | 30 | 249 | 9.7 | 14.5 | 0.00 | 0.00 | 0.00 | 42 | 1013.6 |
| 20260831133004 | 30 | 264 | 6.4 | 14.5 | 0.00 | 0.00 | 0.00 | 43 | 1013.5 |
| 20260831132504 | 30 | 291 | 3.2 | 12.9 | 0.00 | 0.00 | 0.00 | 43 | 1013.6 |
| 20260831132004 | 30 | 261 | 6.4 | 12.9 | 0.00 | 0.00 | 0.00 | 42 | 1013.6 |
| 20260831131504 | 30 | 270 | 6.4 | 12.9 | 0.00 | 0.00 | 0.00 | 42 | 1013.7 |
| 20260831131004 | 30 | 317 | 4.8 | 6.4 | 0.00 | 0.00 | 0.00 | 42 | 1013.7 |
| 20260831130504 | 30 | 295 | 6.4 | 11.3 | 0.00 | 0.00 | 0.00 | 42 | 1013.7 |
| 20260831130004 | 30 | 269 | 3.2 | 11.3 | 0.00 | 0.00 | 0.00 | 42 | 1013.9 |
| 20260831125504 | 30 | 229 | 1.6 | 12.9 | 0.00 | 0.00 | 0.00 | 43 | 1013.8 |
| 20260831125004 | 30 | 241 | 3.2 | 12.9 | 0.00 | 0.00 | 0.00 | 43 | 1013.9 |
| 20260831124504 | 30 | 232 | 3.2 | 11.3 | 0.00 | 0.00 | 0.00 | 42 | 1013.9 |
| 20260831124004 | 30 | 221 | 1.6 | 6.4 | 0.00 | 0.00 | 0.00 | 42 | 1014.1 |
| 20260831123503 | 30 | 288 | 3.2 | 9.7 | 0.00 | 0.00 | 0.00 | 42 | 1014.1 |
| 20260831123004 | 30 | 289 | 4.8 | 9.7 | 0.00 | 0.00 | 0.00 | 43 | 1014.0 |
| 20260831122504 | 30 | 252 | 6.4 | 12.9 | 0.00 | 0.00 | 0.00 | 42 | 1014.0 |
| 20260831122025 | 29 | 228 | 4.8 | 12.9 | 0.00 | 0.00 | 0.00 | 43 | 1014.2 |
| 20260831121503 | 29 | 205 | 4.8 | 12.9 | 0.00 | 0.00 | 0.00 | 43 | 1014.1 |
| 20260831121004 | 29 | 208 | 4.8 | 12.9 | 0.00 | 0.00 | 0.00 | 43 | 1014.2 |
| 20260831120504 | 29 | 213 | 6.4 | 8.0 | 0.00 | 0.00 | 0.00 | 43 | 1014.2 |
| 20260831120003 | 29 | 200 | 8.0 | 12.9 | 0.00 | 0.00 | 0.00 | 43 | 1014.3 |
| 20260831115504 | 29 | 186 | 6.4 | 12.9 | 0.00 | 0.00 | 0.00 | 43 | 1014.3 |
| 20260831115004 | 29 | 240 | 3.2 | 9.7 | 0.00 | 0.00 | 0.00 | 44 | 1014.3 |
| 20260831114504 | 29 | 217 | 4.8 | 9.7 | 0.00 | 0.00 | 0.00 | 44 | 1014.3 |
| 20260831114004 | 29 | 203 | 6.4 | 12.9 | 0.00 | 0.00 | 0.00 | 45 | 1014.3 |
| 20260831113503 | 29 | 210 | 4.8 | 12.9 | 0.00 | 0.00 | 0.00 | 45 | 1014.3 |
| 20260831113004 | 29 | 280 | 1.6 | 6.4 | 0.00 | 0.00 | 0.00 | 45 | 1014.4 |
| 20260831112525 | 29 | 278 | 1.6 | 6.4 | 0.00 | 0.00 | 0.00 | 45 | 1014.3 |
| 20260831112004 | 29 | 221 | 0.0 | 1.6 | 0.00 | 0.00 | 0.00 | 46 | 1014.4 |
| 20260831111503 | 29 | 292 | 1.6 | 6.4 | 0.00 | 0.00 | 0.00 | 45 | 1014.6 |